createdAt,value
2022-11-20T00:00:07.143Z,96600.44
2022-11-20T00:02:33.581Z,96606.16
2022-11-20T00:05:00.009Z,96604.91
2022-11-20T00:07:26.528Z,96609.84
2022-11-20T00:09:53.012Z,96602.66
2022-11-20T00:12:19.484Z,96604.78
2022-11-20T00:14:45.923Z,96605.28
2022-11-20T00:17:12.364Z,96596.22
2022-11-20T00:19:38.799Z,96596.56
2022-11-20T00:22:05.222Z,96598.06
2022-11-20T00:24:31.642Z,96594.22
2022-11-20T00:26:58.069Z,96595.84
2022-11-20T00:29:24.451Z,96589.75
2022-11-20T00:31:50.890Z,96593.84
2022-11-20T00:34:17.321Z,96591.28
2022-11-20T00:36:43.718Z,96594.78
2022-11-20T00:39:10.094Z,96592.91
2022-11-20T00:41:36.655Z,96593.50
2022-11-20T00:44:03.142Z,96587.00
2022-11-20T00:46:29.548Z,96595.63
2022-11-20T00:48:56.172Z,96591.28
2022-11-20T00:51:24.210Z,96591.84
2022-11-20T00:53:50.671Z,96595.13
2022-11-20T00:56:18.016Z,96594.06
2022-11-20T00:58:45.178Z,96604.88
2022-11-20T01:01:14.767Z,96593.59
2022-11-20T01:03:42.569Z,96595.25
2022-11-20T01:06:10.956Z,96600.28
2022-11-20T01:08:37.504Z,96599.09
2022-11-20T01:11:05.344Z,96604.97
2022-11-20T01:13:41.825Z,96602.13
2022-11-20T01:16:09.845Z,96598.97
2022-11-20T01:18:36.953Z,96596.84
2022-11-20T01:21:04.503Z,96600.69
2022-11-20T01:23:31.820Z,96609.63
2022-11-20T01:25:58.207Z,96598.34
2022-11-20T01:28:24.618Z,96603.94
2022-11-20T01:30:51.014Z,96601.13
2022-11-20T01:33:17.424Z,96596.75
2022-11-20T01:35:43.796Z,96590.78
2022-11-20T01:38:10.305Z,96588.06
2022-11-20T01:40:36.685Z,96587.50
2022-11-20T01:43:23.367Z,96591.97
2022-11-20T01:46:05.062Z,96581.50
2022-11-20T01:48:33.678Z,96579.47
2022-11-20T01:51:00.202Z,96577.72
2022-11-20T01:53:27.482Z,96571.84
2022-11-20T01:55:54.693Z,96565.72
2022-11-20T01:58:21.731Z,96573.34
2022-11-20T02:00:48.141Z,96573.09
2022-11-20T02:03:18.237Z,96569.00
2022-11-20T02:05:46.306Z,96573.84
2022-11-20T02:08:12.694Z,96557.38
2022-11-20T02:10:39.145Z,96560.13
2022-11-20T02:13:24.226Z,96553.31
2022-11-20T02:15:50.793Z,96556.84
2022-11-20T02:18:17.567Z,96558.50
2022-11-20T02:20:44.425Z,96558.25
2022-11-20T02:23:16.674Z,96555.41
2022-11-20T02:25:43.085Z,96549.97
2022-11-20T02:28:09.475Z,96552.22
2022-11-20T02:30:35.891Z,96553.97
2022-11-20T02:33:02.304Z,96548.09
2022-11-20T02:35:28.712Z,96549.28
2022-11-20T02:37:55.786Z,96542.47
2022-11-20T02:40:22.838Z,96544.50
2022-11-20T02:42:52.513Z,96548.88
2022-11-20T02:45:18.968Z,96543.63
2022-11-20T02:47:45.390Z,96539.69
2022-11-20T02:50:11.889Z,96546.25
2022-11-20T02:52:38.314Z,96544.09
2022-11-20T02:55:04.967Z,96543.63
2022-11-20T02:57:31.378Z,96530.44
2022-11-20T02:59:57.797Z,96529.75
2022-11-20T03:02:24.179Z,96527.72
2022-11-20T03:04:50.808Z,96535.34
2022-11-20T03:07:17.218Z,96527.31
2022-11-20T03:09:43.659Z,96525.44
2022-11-20T03:12:10.054Z,96525.44
2022-11-20T03:14:36.482Z,96522.41
2022-11-20T03:17:02.982Z,96525.69
2022-11-20T03:19:29.391Z,96521.34
2022-11-20T03:21:55.874Z,96520.50
2022-11-20T03:24:22.299Z,96528.28
2022-11-20T03:26:48.713Z,96518.63
2022-11-20T03:29:15.102Z,96522.41
2022-11-20T03:31:41.722Z,96526.06
2022-11-20T03:34:08.642Z,96513.97
2022-11-20T03:36:35.239Z,96524.03
2022-11-20T03:39:01.619Z,96519.13
2022-11-20T03:41:28.995Z,96511.25
2022-11-20T03:43:59.553Z,96512.31
2022-11-20T03:46:26.212Z,96514.47
2022-11-20T03:48:52.647Z,96511.63
2022-11-20T03:51:20.540Z,96510.56
2022-11-20T03:53:47.456Z,96503.34
2022-11-20T03:56:14.809Z,96498.88
2022-11-20T03:58:42.735Z,96502.13
2022-11-20T04:01:09.914Z,96501.44
2022-11-20T04:03:36.967Z,96500.06
2022-11-20T04:06:07.559Z,96506.19
2022-11-20T04:08:35.998Z,96500.47
2022-11-20T04:11:21.147Z,96501.53
2022-11-20T04:13:48.668Z,96495.06
2022-11-20T04:16:16.480Z,96501.31
2022-11-20T04:18:42.907Z,96495.06
2022-11-20T04:21:09.367Z,96491.66
2022-11-20T04:23:35.772Z,96494.13
2022-11-20T04:26:05.977Z,96489.53
2022-11-20T04:28:32.428Z,96486.25
2022-11-20T04:31:08.133Z,96478.47
2022-11-20T04:33:34.920Z,96484.59
2022-11-20T04:36:02.693Z,96473.31
2022-11-20T04:38:29.075Z,96479.88
2022-11-20T04:40:59.430Z,96474.44
2022-11-20T04:43:25.978Z,96475.00
2022-11-20T04:45:55.723Z,96474.19
2022-11-20T04:48:22.197Z,96484.28
2022-11-20T04:50:48.721Z,96489.47
2022-11-20T04:53:15.089Z,96485.53
2022-11-20T04:55:41.531Z,96486.34
2022-11-20T04:58:07.995Z,96488.25
2022-11-20T05:00:34.394Z,96487.88
2022-11-20T05:03:01.083Z,96490.09
2022-11-20T05:05:27.513Z,96498.28
2022-11-20T05:07:53.939Z,96496.63
2022-11-20T05:10:20.332Z,96490.50
2022-11-20T05:12:46.751Z,96487.75
2022-11-20T05:15:13.329Z,96492.94
2022-11-20T05:17:39.766Z,96497.41
2022-11-20T05:20:06.362Z,96496.97
2022-11-20T05:22:32.809Z,96492.47
2022-11-20T05:24:59.188Z,96490.28
2022-11-20T05:27:25.600Z,96493.69
2022-11-20T05:29:52.000Z,96487.94
2022-11-20T05:32:18.426Z,96492.19
2022-11-20T05:34:44.817Z,96495.59
2022-11-20T05:37:11.240Z,96494.38
2022-11-20T05:39:37.661Z,96491.09
2022-11-20T05:42:22.765Z,96489.31
2022-11-20T05:44:49.152Z,96487.81
2022-11-20T05:47:15.611Z,96480.75
2022-11-20T05:49:41.998Z,96485.22
2022-11-20T05:52:08.447Z,96481.56
2022-11-20T05:54:34.880Z,96476.13
2022-11-20T05:57:01.296Z,96476.72
2022-11-20T05:59:27.745Z,96472.66
2022-11-20T06:01:54.182Z,96477.16
2022-11-20T06:04:20.605Z,96478.66
2022-11-20T06:06:47.015Z,96472.94
2022-11-20T06:09:13.430Z,96478.19
2022-11-20T06:11:39.885Z,96487.72
2022-11-20T06:14:06.381Z,96491.38
2022-11-20T06:16:32.815Z,96496.31
2022-11-20T06:18:59.229Z,96499.59
2022-11-20T06:21:25.663Z,96482.13
2022-11-20T06:23:53.062Z,96493.44
2022-11-20T06:26:20.371Z,96480.09
2022-11-20T06:28:47.051Z,96489.38
2022-11-20T06:31:14.545Z,96483.97
2022-11-20T06:33:41.430Z,96496.19
2022-11-20T06:36:10.823Z,96494.00
2022-11-20T06:38:37.723Z,96483.50
2022-11-20T06:41:04.433Z,96484.47
2022-11-20T06:43:31.026Z,96487.88
2022-11-20T06:45:58.120Z,96497.41
2022-11-20T06:48:24.764Z,96488.00
2022-11-20T06:50:51.121Z,96483.66
2022-11-20T06:53:17.602Z,96489.09
2022-11-20T06:55:44.742Z,96498.38
2022-11-20T06:58:11.358Z,96499.75
2022-11-20T07:00:37.835Z,96488.44
2022-11-20T07:03:05.096Z,96489.16
2022-11-20T07:05:31.601Z,96495.69
2022-11-20T07:07:58.399Z,96503.88
2022-11-20T07:10:25.130Z,96508.94
2022-11-20T07:12:52.123Z,96506.47
2022-11-20T07:15:18.893Z,96505.53
2022-11-20T07:17:45.330Z,96511.53
2022-11-20T07:20:11.929Z,96510.31
2022-11-20T07:22:38.487Z,96509.94
2022-11-20T07:25:05.145Z,96509.13
2022-11-20T07:27:31.548Z,96515.41
2022-11-20T07:29:57.993Z,96510.25
2022-11-20T07:32:24.636Z,96516.00
2022-11-20T07:34:51.085Z,96514.09
2022-11-20T07:37:17.483Z,96523.63
2022-11-20T07:39:44.009Z,96520.22
2022-11-20T07:42:10.594Z,96523.63
2022-11-20T07:44:37.029Z,96513.00
2022-11-20T07:47:03.526Z,96519.56
2022-11-20T07:49:29.955Z,96516.69
2022-11-20T07:51:59.340Z,96516.41
2022-11-20T07:54:29.675Z,96515.75
2022-11-20T07:56:56.058Z,96523.50
2022-11-20T07:59:22.673Z,96523.38
2022-11-20T08:01:49.200Z,96529.25
2022-11-20T08:04:17.182Z,96525.31
2022-11-20T08:06:43.571Z,96525.75
2022-11-20T08:09:10.583Z,96528.06
2022-11-20T08:11:55.704Z,96524.38
2022-11-20T08:14:22.123Z,96524.00
2022-11-20T08:16:48.894Z,96521.00
2022-11-20T08:19:15.927Z,96519.63
2022-11-20T08:21:42.439Z,96520.84
2022-11-20T08:24:09.372Z,96521.28
2022-11-20T08:26:39.192Z,96522.66
2022-11-20T08:29:05.850Z,96527.28
2022-11-20T08:31:32.365Z,96524.03
2022-11-20T08:33:59.199Z,96524.69
2022-11-20T08:36:25.709Z,96519.91
2022-11-20T08:38:52.814Z,96519.50
2022-11-20T08:41:25.290Z,96522.63
2022-11-20T08:43:52.507Z,96522.28
2022-11-20T08:46:19.108Z,96517.25
2022-11-20T08:48:45.595Z,96526.38
2022-11-20T08:51:12.234Z,96526.81
2022-11-20T08:53:39.108Z,96525.34
2022-11-20T08:56:05.797Z,96525.59
2022-11-20T08:58:48.837Z,96523.53
2022-11-20T09:01:19.262Z,96523.19
2022-11-20T09:03:45.687Z,96523.56
2022-11-20T09:06:12.135Z,96519.41
2022-11-20T09:08:38.653Z,96523.19
2022-11-20T09:11:05.557Z,96522.91
2022-11-20T09:13:32.519Z,96524.72
2022-11-20T09:16:00.201Z,96520.94
2022-11-20T09:18:26.958Z,96517.75
2022-11-20T09:20:56.812Z,96514.44
2022-11-20T09:23:23.200Z,96511.13
2022-11-20T09:25:49.686Z,96517.06
2022-11-20T09:28:16.084Z,96521.03
2022-11-20T09:30:42.506Z,96526.19
2022-11-20T09:33:08.893Z,96515.41
2022-11-20T09:35:35.405Z,96506.28
2022-11-20T09:38:05.511Z,96504.75
2022-11-20T09:40:31.936Z,96507.47
2022-11-20T09:43:01.428Z,96510.22
2022-11-20T09:45:40.106Z,96509.97
2022-11-20T09:48:26.063Z,96502.22
2022-11-20T09:50:58.722Z,96497.28
2022-11-20T09:53:43.958Z,96503.66
2022-11-20T09:56:10.389Z,96506.34
2022-11-20T09:58:41.282Z,96503.28
2022-11-20T10:01:12.355Z,96499.91
2022-11-20T10:03:41.309Z,96492.81
2022-11-20T10:06:08.736Z,96497.44
2022-11-20T10:08:46.767Z,96490.78
2022-11-20T10:11:19.315Z,96496.88
2022-11-20T10:14:04.541Z,96492.84
2022-11-20T10:16:30.953Z,96490.38
2022-11-20T10:18:57.335Z,96490.56
2022-11-20T10:21:42.467Z,96484.69
2022-11-20T10:24:28.395Z,96483.69
2022-11-20T10:26:59.713Z,96476.47
2022-11-20T10:29:35.759Z,96472.53
2022-11-20T10:32:03.571Z,96474.03
2022-11-20T10:34:32.620Z,96473.31
2022-11-20T10:37:04.820Z,96475.59
2022-11-20T10:39:42.483Z,96476.88
2022-11-20T10:42:12.654Z,96467.44
2022-11-20T10:44:58.837Z,96467.19
2022-11-20T10:47:26.948Z,96462.97
2022-11-20T10:49:54.338Z,96466.16
2022-11-20T10:52:36.123Z,96473.13
2022-11-20T10:55:21.402Z,96478.59
2022-11-20T10:57:51.760Z,96476.00
2022-11-20T11:00:18.450Z,96469.31
2022-11-20T11:02:54.522Z,96463.78
2022-11-20T11:05:27.159Z,96462.13
2022-11-20T11:07:57.319Z,96459.88
2022-11-20T11:10:42.487Z,96456.69
2022-11-20T11:13:08.979Z,96469.81
2022-11-20T11:15:39.545Z,96459.28
2022-11-20T11:18:06.200Z,96463.00
2022-11-20T11:20:33.410Z,96455.56
2022-11-20T11:23:00.102Z,96451.41
2022-11-20T11:25:36.042Z,96450.91
2022-11-20T11:28:17.713Z,96442.78
2022-11-20T11:30:44.886Z,96441.72
2022-11-20T11:33:12.505Z,96440.97
2022-11-20T11:35:51.378Z,96436.09
2022-11-20T11:38:20.680Z,96429.03
2022-11-20T11:40:47.653Z,96418.63
2022-11-20T11:43:46.027Z,96417.09
2022-11-20T11:46:21.607Z,96410.00
2022-11-20T11:48:58.329Z,96402.75
2022-11-20T11:51:26.704Z,96402.25
2022-11-20T11:53:53.139Z,96397.53
2022-11-20T11:56:19.598Z,96403.72
2022-11-20T11:58:50.486Z,96400.00
2022-11-20T12:01:26.216Z,96401.81
2022-11-20T12:04:11.041Z,96399.38
2022-11-20T12:06:37.853Z,96399.09
2022-11-20T12:09:05.286Z,96399.47
2022-11-20T12:11:43.843Z,96399.63
2022-11-20T12:14:10.225Z,96386.56
2022-11-20T12:16:36.985Z,96374.50
2022-11-20T12:19:03.427Z,96372.38
2022-11-20T12:21:36.397Z,96376.97
2022-11-20T12:24:02.819Z,96376.31
2022-11-20T12:26:35.341Z,96376.25
2022-11-20T12:29:01.713Z,96375.59
2022-11-20T12:31:41.374Z,96369.34
2022-11-20T12:34:16.946Z,96362.13
2022-11-20T12:36:46.205Z,96354.44
2022-11-20T12:39:22.573Z,96357.16
2022-11-20T12:42:17.151Z,96348.34
2022-11-20T12:45:11.191Z,96356.94
2022-11-20T12:47:46.777Z,96349.91
2022-11-20T12:50:16.217Z,96344.38
2022-11-20T12:52:46.144Z,96352.19
2022-11-20T12:55:27.124Z,96346.97
2022-11-20T12:58:02.090Z,96342.66
2022-11-20T13:00:28.628Z,96335.84
2022-11-20T13:02:58.040Z,96343.31
2022-11-20T13:05:39.771Z,96335.72
2022-11-20T13:08:08.399Z,96345.19
2022-11-20T13:10:36.937Z,96341.81
2022-11-20T13:13:09.396Z,96328.00
2022-11-20T13:15:56.505Z,96320.84
2022-11-20T13:18:22.946Z,96319.41
2022-11-20T13:20:50.598Z,96319.44
2022-11-20T13:23:29.718Z,96307.06
2022-11-20T13:26:06.625Z,96304.81
2022-11-20T13:28:33.101Z,96297.97
2022-11-20T13:30:59.699Z,96296.97
2022-11-20T13:33:33.397Z,96288.31
2022-11-20T13:35:59.800Z,96283.91
2022-11-20T13:38:28.829Z,96285.50
2022-11-20T13:40:59.968Z,96279.00
2022-11-20T13:43:36.622Z,96270.50
2022-11-20T13:46:04.141Z,96272.16
2022-11-20T13:48:31.801Z,96263.97
2022-11-20T13:50:58.194Z,96256.66
2022-11-20T13:53:28.818Z,96250.47
2022-11-20T13:55:55.984Z,96243.59
2022-11-20T13:58:25.769Z,96241.13
2022-11-20T14:01:12.496Z,96239.97
2022-11-20T14:04:07.473Z,96235.25
2022-11-20T14:06:32.514Z,96232.63
2022-11-20T14:08:59.314Z,96245.56
2022-11-20T14:11:26.861Z,96234.13
2022-11-20T14:14:03.954Z,96230.53
2022-11-20T14:16:31.474Z,96223.69
2022-11-20T14:18:58.349Z,96217.19
2022-11-20T14:21:25.790Z,96216.97
2022-11-20T14:24:03.691Z,96216.31
2022-11-20T14:26:30.143Z,96218.06
2022-11-20T14:28:56.810Z,96218.41
2022-11-20T14:31:26.585Z,96215.00
2022-11-20T14:33:53.795Z,96217.59
2022-11-20T14:36:21.360Z,96212.19
2022-11-20T14:38:47.844Z,96207.00
2022-11-20T14:41:21.435Z,96209.44
2022-11-20T14:43:48.926Z,96198.50
2022-11-20T14:46:15.330Z,96200.16
2022-11-20T14:48:48.566Z,96191.69
2022-11-20T14:51:33.608Z,96192.66
2022-11-20T14:54:15.957Z,96193.63
2022-11-20T14:56:42.626Z,96191.91
2022-11-20T14:59:09.550Z,96181.28
2022-11-20T15:01:36.205Z,96181.97
2022-11-20T15:04:06.090Z,96177.25
2022-11-20T15:06:32.547Z,96172.16
2022-11-20T15:08:59.359Z,96168.06
2022-11-20T15:11:30.280Z,96165.06
2022-11-20T15:13:56.703Z,96165.88
2022-11-20T15:16:24.173Z,96161.50
2022-11-20T15:18:50.607Z,96156.63
2022-11-20T15:21:20.495Z,96154.19
2022-11-20T15:23:46.907Z,96149.78
2022-11-20T15:26:19.513Z,96143.94
2022-11-20T15:28:48.559Z,96148.31
2022-11-20T15:31:16.042Z,96136.13
2022-11-20T15:33:43.356Z,96126.22
2022-11-20T15:36:09.996Z,96123.47
2022-11-20T15:38:36.535Z,96133.06
2022-11-20T15:41:02.989Z,96132.75
2022-11-20T15:43:29.426Z,96130.50
2022-11-20T15:46:03.564Z,96129.19
2022-11-20T15:48:29.979Z,96123.63
2022-11-20T15:51:00.837Z,96115.81
2022-11-20T15:53:27.285Z,96120.56
2022-11-20T15:55:53.769Z,96116.69
2022-11-20T15:58:20.263Z,96112.66
2022-11-20T16:00:46.880Z,96107.19
2022-11-20T16:03:13.721Z,96111.41
2022-11-20T16:05:40.144Z,96101.16
2022-11-20T16:08:11.335Z,96088.03
2022-11-20T16:10:38.379Z,96075.06
2022-11-20T16:13:28.532Z,96070.50
2022-11-20T16:15:57.183Z,96072.63
2022-11-20T16:18:23.721Z,96070.81
2022-11-20T16:20:51.151Z,96069.53
2022-11-20T16:23:17.847Z,96063.19
2022-11-20T16:25:44.579Z,96068.75
2022-11-20T16:28:14.738Z,96067.28
2022-11-20T16:30:44.995Z,96056.69
2022-11-20T16:33:13.225Z,96058.34
2022-11-20T16:35:39.921Z,96061.88
2022-11-20T16:38:06.444Z,96055.56
2022-11-20T16:40:32.926Z,96054.75
2022-11-20T16:43:02.321Z,96051.03
2022-11-20T16:45:33.591Z,96051.03
2022-11-20T16:48:00.387Z,96046.13
2022-11-20T16:50:26.793Z,96042.06
2022-11-20T16:52:53.184Z,96043.53
2022-11-20T16:55:19.624Z,96042.72
2022-11-20T16:57:46.032Z,96035.06
2022-11-20T17:00:13.107Z,96037.34
2022-11-20T17:02:39.558Z,96032.78
2022-11-20T17:05:06.495Z,96036.22
2022-11-20T17:07:32.899Z,96025.63
2022-11-20T17:10:00.660Z,96012.31
2022-11-20T17:12:27.053Z,96010.31
2022-11-20T17:14:53.487Z,96010.00
2022-11-20T17:17:19.904Z,96005.78
2022-11-20T17:19:46.351Z,96001.53
2022-11-20T17:22:12.770Z,96001.53
2022-11-20T17:24:39.199Z,96002.84
2022-11-20T17:27:05.676Z,96003.16
2022-11-20T17:29:32.105Z,96000.41
2022-11-20T17:31:58.536Z,95993.25
2022-11-20T17:34:25.418Z,95980.91
2022-11-20T17:36:52.091Z,95987.91
2022-11-20T17:39:19.367Z,95983.19
2022-11-20T17:41:45.869Z,95974.91
2022-11-20T17:44:12.518Z,95967.09
2022-11-20T17:46:39.070Z,95965.75
2022-11-20T17:49:05.634Z,95966.09
2022-11-20T17:51:33.284Z,95956.84
2022-11-20T17:54:00.940Z,95960.22
2022-11-20T17:56:49.228Z,95947.56
2022-11-20T17:59:15.726Z,95940.72
2022-11-20T18:01:43.314Z,95935.03
2022-11-20T18:04:10.009Z,95933.91
2022-11-20T18:06:36.478Z,95917.31
2022-11-20T18:09:04.107Z,95920.72
2022-11-20T18:11:33.652Z,95921.84
2022-11-20T18:14:18.575Z,95898.75
2022-11-20T18:16:46.143Z,95895.69
2022-11-20T18:19:13.377Z,95898.94
2022-11-20T18:21:39.866Z,95892.25
2022-11-20T18:24:06.546Z,95878.09
2022-11-20T18:26:32.989Z,95873.06
2022-11-20T18:29:02.183Z,95875.97
2022-11-20T18:31:32.681Z,95871.09
2022-11-20T18:33:59.122Z,95862.97
2022-11-20T18:36:26.412Z,95861.03
2022-11-20T18:38:53.442Z,95861.66
2022-11-20T18:41:39.153Z,95849.47
2022-11-20T18:44:25.050Z,95845.75
2022-11-20T18:46:52.019Z,95842.47
2022-11-20T18:49:18.411Z,95833.84
2022-11-20T18:51:44.865Z,95831.88
2022-11-20T18:54:11.808Z,95824.25
2022-11-20T18:56:38.466Z,95840.84
2022-11-20T18:59:05.405Z,95803.22
2022-11-20T19:01:31.847Z,95807.47
2022-11-20T19:03:58.336Z,95807.94
2022-11-20T19:06:25.639Z,95796.38
2022-11-20T19:08:52.532Z,95791.50
2022-11-20T19:11:19.080Z,95797.88
2022-11-20T19:13:45.785Z,95794.13
2022-11-20T19:16:16.397Z,95782.91
2022-11-20T19:18:43.807Z,95772.94
2022-11-20T19:21:14.494Z,95778.31
2022-11-20T19:23:41.162Z,95766.59
2022-11-20T19:26:07.692Z,95775.84
2022-11-20T19:28:34.691Z,95765.25
2022-11-20T19:31:04.194Z,95770.47
2022-11-20T19:33:30.626Z,95759.34
2022-11-20T19:35:58.486Z,95758.19
2022-11-20T19:38:25.388Z,95754.78
2022-11-20T19:40:51.803Z,95754.13
2022-11-20T19:43:18.229Z,95747.44
2022-11-20T19:45:44.609Z,95750.31
2022-11-20T19:48:11.055Z,95736.47
2022-11-20T19:50:37.470Z,95737.38
2022-11-20T19:53:03.904Z,95740.16
2022-11-20T19:55:30.305Z,95735.09
2022-11-20T19:57:56.795Z,95732.78
2022-11-20T20:00:29.563Z,95728.47
2022-11-20T20:02:58.672Z,95714.06
2022-11-20T20:05:25.111Z,95701.31
2022-11-20T20:07:51.531Z,95715.91
2022-11-20T20:10:18.217Z,95702.53
2022-11-20T20:12:44.657Z,95703.34
2022-11-20T20:15:11.060Z,95696.97
2022-11-20T20:17:37.483Z,95691.19
2022-11-20T20:20:04.170Z,95693.94
2022-11-20T20:22:30.607Z,95689.63
2022-11-20T20:24:57.053Z,95690.53
2022-11-20T20:27:23.510Z,95691.00
2022-11-20T20:29:49.967Z,95682.25
2022-11-20T20:32:16.352Z,95669.13
2022-11-20T20:34:42.762Z,95680.03
2022-11-20T20:37:09.162Z,95669.75
2022-11-20T20:39:35.577Z,95666.34
2022-11-20T20:42:02.013Z,95656.00
2022-11-20T20:44:47.275Z,95663.72
2022-11-20T20:47:13.681Z,95659.13
2022-11-20T20:49:43.145Z,95657.16
2022-11-20T20:52:10.381Z,95649.78
2022-11-20T20:54:37.016Z,95651.59
2022-11-20T20:57:03.487Z,95645.38
2022-11-20T20:59:29.933Z,95645.25
2022-11-20T21:01:56.362Z,95638.25
2022-11-20T21:04:22.924Z,95639.47
2022-11-20T21:06:49.352Z,95638.34
2022-11-20T21:09:15.811Z,95638.03
2022-11-20T21:11:42.215Z,95642.88
2022-11-20T21:14:08.649Z,95644.13
2022-11-20T21:16:41.175Z,95637.75
2022-11-20T21:19:07.941Z,95643.78
2022-11-20T21:21:52.980Z,95628.13
2022-11-20T21:24:19.511Z,95647.22
2022-11-20T21:26:46.087Z,95635.75
2022-11-20T21:29:12.631Z,95651.44
2022-11-20T21:31:39.056Z,95636.75
2022-11-20T21:34:05.490Z,95641.97
2022-11-20T21:36:32.019Z,95646.22
2022-11-20T21:39:01.365Z,95648.44
2022-11-20T21:41:28.322Z,95649.44
2022-11-20T21:44:29.995Z,95637.38
2022-11-20T21:46:42.362Z,95651.81
2022-11-20T21:49:09.130Z,95653.75
2022-11-20T21:51:35.595Z,95651.81
2022-11-20T21:54:02.088Z,95652.16
2022-11-20T21:56:28.526Z,95659.19
2022-11-20T21:58:55.012Z,95656.31
2022-11-20T22:01:22.687Z,95661.28
2022-11-20T22:03:58.415Z,95672.34
2022-11-20T22:06:25.294Z,95658.84
2022-11-20T22:08:51.785Z,95660.19
2022-11-20T22:11:18.935Z,95659.84
2022-11-20T22:14:04.251Z,95662.47
2022-11-20T22:16:30.681Z,95653.25
2022-11-20T22:18:57.698Z,95672.09
2022-11-20T22:21:25.288Z,95663.59
2022-11-20T22:23:51.948Z,95671.44
2022-11-20T22:26:19.419Z,95673.09
2022-11-20T22:28:49.481Z,95668.03
2022-11-20T22:31:16.276Z,95656.69
2022-11-20T22:33:42.690Z,95679.38
2022-11-20T22:36:10.677Z,95673.34
2022-11-20T22:38:39.488Z,95676.34
2022-11-20T22:41:09.241Z,95692.34
2022-11-20T22:43:35.747Z,95697.66
2022-11-20T22:46:06.734Z,95699.19
2022-11-20T22:48:33.625Z,95702.81
2022-11-20T22:51:00.991Z,95708.38
2022-11-20T22:53:27.413Z,95714.94
2022-11-20T22:55:53.813Z,95708.47
2022-11-20T22:58:20.261Z,95703.78
2022-11-20T23:00:46.710Z,95718.81
2022-11-20T23:03:13.214Z,95706.28
2022-11-20T23:05:39.704Z,95727.34
2022-11-20T23:08:06.132Z,95724.53
2022-11-20T23:10:32.563Z,95732.22
2022-11-20T23:12:59.004Z,95717.72
2022-11-20T23:15:25.465Z,95732.09
2022-11-20T23:17:51.946Z,95739.66
2022-11-20T23:20:18.473Z,95745.41
2022-11-20T23:22:44.926Z,95747.56
2022-11-20T23:25:11.367Z,95743.50
2022-11-20T23:27:37.794Z,95755.72
2022-11-20T23:30:04.424Z,95751.50
2022-11-20T23:32:30.847Z,95759.69
2022-11-20T23:34:57.303Z,95759.06
2022-11-20T23:37:23.746Z,95763.00
2022-11-20T23:39:50.172Z,95758.16
2022-11-20T23:42:16.672Z,95771.81
2022-11-20T23:44:43.109Z,95776.91
2022-11-20T23:47:09.580Z,95779.69
2022-11-20T23:49:36.023Z,95777.59
2022-11-20T23:52:02.734Z,95784.63
2022-11-20T23:54:29.412Z,95784.34
2022-11-20T23:56:55.982Z,95792.19
2022-11-20T23:59:22.490Z,95788.38
